Time;durP1;ratioP1;P1;durP2;ratioP2;P2;SDS_P1;SDS_P2;PMS_P1;PMS_P2;Temp;Humidity;BMP_temperature;BMP_pressure;BME280_temperature;BME280_humidity;BME280_pressure;Samples;Min_cycle;Max_cycle;Signal;HPM_P1;HPM_P2
2023/01/21 00:00:07;;;;;;;1.03;1.03;;;;;;;1.14;100.00;100674.28;5034981;28;20458;-53
2023/01/21 00:02:33;;;;;;;0.70;0.70;;;;;;;1.07;100.00;100683.78;5034938;28;20492;-53
2023/01/21 00:04:59;;;;;;;1.33;0.57;;;;;;;1.12;100.00;100682.13;5034890;28;20475;-53
2023/01/21 00:07:26;;;;;;;0.30;0.30;;;;;;;1.13;100.00;100694.34;5034491;28;20452;-53
2023/01/21 00:09:52;;;;;;;0.20;0.20;;;;;;;1.14;100.00;100690.00;5033540;28;20968;-53
2023/01/21 00:12:19;;;;;;;21.73;1.97;;;;;;;1.14;100.00;100693.50;5034520;28;20561;-53
2023/01/21 00:14:45;;;;;;;1.10;1.00;;;;;;;1.17;100.00;100708.38;5034407;28;20447;-52
2023/01/21 00:17:12;;;;;;;0.33;0.33;;;;;;;1.13;100.00;100703.94;5034264;28;20456;-53
2023/01/21 00:19:38;;;;;;;0.73;0.73;;;;;;;1.07;100.00;100699.47;5034359;28;20998;-53
2023/01/21 00:22:04;;;;;;;1.33;1.33;;;;;;;1.10;100.00;100703.91;5033775;28;20487;-53
2023/01/21 00:24:31;;;;;;;0.70;0.70;;;;;;;1.15;100.00;100712.69;5034811;28;20455;-53
2023/01/21 00:26:57;;;;;;;0.30;0.23;;;;;;;1.08;100.00;100721.28;5020573;28;20453;-52
2023/01/21 00:29:25;;;;;;;0.93;0.93;;;;;;;1.04;100.00;100719.50;5045247;28;20527;-53
2023/01/21 00:31:51;;;;;;;0.97;0.83;;;;;;;1.06;100.00;100736.97;5047838;28;20468;-53
2023/01/21 00:34:18;;;;;;;1.03;0.40;;;;;;;1.04;100.00;100730.84;5045635;28;21010;-53
2023/01/21 00:36:44;;;;;;;0.40;0.40;;;;;;;1.07;100.00;100740.47;5045724;28;20474;-53
2023/01/21 00:39:10;;;;;;;0.60;0.60;;;;;;;1.09;100.00;100741.38;5037673;28;20534;-52
2023/01/21 00:41:37;;;;;;;0.70;0.70;;;;;;;1.05;100.00;100745.69;5033065;28;20517;-53
2023/01/21 00:44:04;;;;;;;0.30;0.30;;;;;;;1.08;100.00;100745.72;5032698;28;20567;-52
2023/01/21 00:46:31;;;;;;;0.60;0.40;;;;;;;1.00;100.00;100752.59;5032967;28;20447;-52
2023/01/21 00:48:59;;;;;;;1.23;1.23;;;;;;;1.02;100.00;100752.63;5033223;28;20452;-53
2023/01/21 00:51:26;;;;;;;1.53;1.43;;;;;;;1.03;100.00;100757.88;5032578;28;20456;-52
2023/01/21 00:53:52;;;;;;;1.23;1.13;;;;;;;1.06;100.00;100752.69;5032797;28;20483;-53
2023/01/21 00:56:19;;;;;;;0.30;0.30;;;;;;;1.05;100.00;100770.97;5032862;28;20448;-53
2023/01/21 00:58:45;;;;;;;1.23;1.23;;;;;;;1.06;100.00;100763.16;5031922;28;20456;-53
2023/01/21 01:01:16;;;;;;;0.83;0.83;;;;;;;1.05;100.00;100774.47;5032687;28;20448;-53
2023/01/21 01:03:43;;;;;;;0.70;0.50;;;;;;;1.00;100.00;100767.41;5032271;28;20571;-53
2023/01/21 01:06:13;;;;;;;0.23;0.20;;;;;;;0.97;100.00;100775.22;5032769;28;20455;-52
2023/01/21 01:08:41;;;;;;;0.43;0.43;;;;;;;1.01;100.00;100774.41;5032481;28;20494;-52
2023/01/21 01:11:07;;;;;;;0.30;0.30;;;;;;;1.00;100.00;100785.72;5032794;28;20451;-52
2023/01/21 01:13:34;;;;;;;12.67;0.60;;;;;;;0.99;100.00;100790.09;5032331;28;20491;-53
2023/01/21 01:16:01;;;;;;;0.30;0.30;;;;;;;1.05;100.00;100789.31;5032514;28;20505;-52
2023/01/21 01:18:31;;;;;;;1.37;1.37;;;;;;;0.99;100.00;100797.94;5032620;28;20846;-52
2023/01/21 01:20:57;;;;;;;0.30;0.30;;;;;;;0.98;100.00;100804.03;5038191;28;20452;-52
2023/01/21 01:23:24;;;;;;;1.60;1.40;;;;;;;1.01;100.00;100814.53;5030609;28;20497;-52
2023/01/21 01:25:56;;;;;;;0.30;0.30;;;;;;;0.97;100.00;100822.31;5032405;28;20455;-52
2023/01/21 01:28:23;;;;;;;0.37;0.27;;;;;;;0.97;100.00;100835.41;5032231;28;20447;-52
2023/01/21 01:30:50;;;;;;;6.33;2.20;;;;;;;0.93;100.00;100834.44;5039789;28;20960;-52
2023/01/21 01:33:18;;;;;;;3.13;2.73;;;;;;;0.96;100.00;100844.09;5032139;28;21001;-52
2023/01/21 01:35:48;;;;;;;1.80;1.00;;;;;;;0.95;100.00;100851.06;5032575;28;20566;-53
2023/01/21 01:38:16;;;;;;;0.40;0.40;;;;;;;0.98;100.00;100850.25;5032296;28;20538;-52
2023/01/21 01:40:42;;;;;;;3.13;1.90;;;;;;;0.98;100.00;100852.88;5035529;28;20458;-52
2023/01/21 01:43:15;;;;;;;2.53;2.33;;;;;;;0.98;100.00;100855.50;5032156;28;20491;-52
2023/01/21 01:45:42;;;;;;;1.30;1.20;;;;;;;1.02;100.00;100857.31;5033579;28;20526;-52
2023/01/21 01:48:12;;;;;;;2.73;2.57;;;;;;;1.04;100.00;100861.72;5036051;28;20953;-52
2023/01/21 01:50:38;;;;;;;0.83;0.83;;;;;;;1.04;100.00;100866.94;5036135;28;20458;-53
2023/01/21 01:53:07;;;;;;;1.80;1.10;;;;;;;1.08;100.00;100865.25;5035875;28;20559;-52
2023/01/21 01:55:35;;;;;;;2.30;1.77;;;;;;;1.07;100.00;100877.47;5045432;28;20951;-52
2023/01/21 01:58:05;;;;;;;6.00;2.00;;;;;;;1.11;100.00;100879.31;5035808;28;20505;-52
2023/01/21 02:00:32;;;;;;;4.00;2.77;;;;;;;1.10;100.00;100880.16;5036004;28;20451;-52
2023/01/21 02:05:46;;;;;;;0.60;0.60;;;;;;;1.10;100.00;100880.16;5036942;28;20454;-52
2023/01/21 02:08:13;;;;;;;5.60;2.60;;;;;;;1.09;100.00;100893.19;5035891;28;20451;-53
2023/01/21 02:10:40;;;;;;;1.70;1.23;;;;;;;1.11;100.00;100894.13;5036567;28;20453;-52
2023/01/21 02:13:07;;;;;;;4.37;1.00;;;;;;;1.10;100.00;100903.72;5035650;28;20463;-53
2023/01/21 02:15:45;;;;;;;4.10;1.57;;;;;;;1.08;100.00;100902.78;5036102;28;20518;-53
2023/01/21 02:18:51;;;;;;;3.00;1.20;;;;;;;1.21;100.00;100911.75;5041741;28;20442;-53
2023/01/21 02:21:52;;;;;;;1.63;1.50;;;;;;;1.13;100.00;100914.25;4994997;28;20467;-53
2023/01/21 02:24:37;;;;;;;1.53;1.43;;;;;;;1.16;100.00;100918.66;5035331;28;21003;-52
2023/01/21 02:27:22;;;;;;;1.57;1.30;;;;;;;1.04;100.00;100910.56;5024438;28;20448;-53
2023/01/21 02:30:14;;;;;;;1.90;1.80;;;;;;;1.08;100.00;100917.59;5019713;28;20455;-52
2023/01/21 02:33:10;;;;;;;1.23;1.23;;;;;;;1.03;100.00;100921.88;5035076;28;20494;-53
2023/01/21 02:36:03;;;;;;;5.10;1.30;;;;;;;1.06;100.00;100940.25;5035173;28;20444;-52
2023/01/21 02:38:39;;;;;;;5.57;2.53;;;;;;;1.09;100.00;100935.06;5028338;28;21019;-54
2023/01/21 02:41:47;;;;;;;0.70;0.70;;;;;;;1.06;100.00;100935.03;5035517;28;20447;-53
2023/01/21 02:44:32;;;;;;;0.43;0.43;;;;;;;1.06;100.00;100938.53;5036403;28;20903;-52
2023/01/21 02:47:20;;;;;;;1.23;1.23;;;;;;;1.04;100.00;100944.59;5035773;28;20498;-52
2023/01/21 02:50:02;;;;;;;1.40;1.00;;;;;;;1.01;100.00;100940.19;5024452;28;20498;-52
2023/01/21 02:52:29;;;;;;;2.27;2.20;;;;;;;1.09;100.00;100949.03;5035607;28;20472;-52
2023/01/21 02:54:57;;;;;;;0.93;0.93;;;;;;;1.24;100.00;100952.84;5040645;28;20460;-53
2023/01/21 02:58:02;;;;;;;1.43;1.20;;;;;;;1.06;100.00;100958.59;5034029;28;20447;-52
2023/01/21 03:00:44;;;;;;;3.10;1.53;;;;;;;1.03;100.00;100959.41;4957280;28;20458;-53
2023/01/21 03:03:28;;;;;;;2.93;2.73;;;;;;;1.16;100.00;100960.53;5022838;28;20611;-52
2023/01/21 03:06:28;;;;;;;2.13;2.03;;;;;;;1.05;100.00;100967.28;5023527;28;20454;-52
2023/01/21 03:09:10;;;;;;;4.33;3.17;;;;;;;1.05;100.00;100965.56;5039760;28;20458;-52
2023/01/21 03:11:36;;;;;;;4.20;1.87;;;;;;;1.05;100.00;100967.28;5034513;28;20505;-53
2023/01/21 03:17:17;;;;;;;2.00;1.87;;;;;;;1.15;100.00;100970.13;5025376;28;20453;-53
2023/01/21 03:19:51;;;;;;;7.17;2.33;;;;;;;1.07;100.00;100962.97;5039407;28;20501;-53
2023/01/21 03:22:24;;;;;;;0.57;0.57;;;;;;;1.02;100.00;100973.34;5034608;28;20541;-52
2023/01/21 03:24:53;;;;;;;2.40;1.43;;;;;;;1.16;100.00;100981.50;5034331;28;20498;-52
2023/01/21 03:27:23;;;;;;;0.47;0.47;;;;;;;1.03;100.00;100971.63;5041157;28;20549;-52
2023/01/21 03:29:56;;;;;;;4.87;4.47;;;;;;;1.05;100.00;100981.25;5036207;28;20934;-52
2023/01/21 03:32:27;;;;;;;3.30;2.00;;;;;;;0.98;100.00;100991.59;5034434;28;20809;-52
2023/01/21 03:34:55;;;;;;;6.60;1.17;;;;;;;1.02;100.00;100988.16;5035620;28;20534;-53
2023/01/21 03:37:35;;;;;;;2.07;1.90;;;;;;;0.98;100.00;100989.84;5034635;28;20515;-52
2023/01/21 03:40:22;;;;;;;8.63;2.40;;;;;;;1.04;100.00;100982.09;5034190;28;20455;-53
2023/01/21 03:42:49;;;;;;;0.87;0.87;;;;;;;0.92;100.00;100986.19;5034222;28;20467;-53
2023/01/21 03:45:26;;;;;;;5.60;1.57;;;;;;;0.83;100.00;100984.28;5033972;28;20547;-52
2023/01/21 03:47:58;;;;;;;1.27;1.13;;;;;;;1.03;100.00;100993.44;5033962;28;20493;-53
2023/01/21 03:50:34;;;;;;;1.70;1.60;;;;;;;0.82;100.00;100991.25;5033964;28;20459;-52
2023/01/21 03:53:00;;;;;;;2.27;2.17;;;;;;;0.80;100.00;100992.91;5034151;28;20546;-53
2023/01/21 03:55:27;;;;;;;2.37;2.27;;;;;;;0.58;100.00;100999.41;5034010;28;20444;-52
2023/01/21 03:57:53;;;;;;;6.43;2.17;;;;;;;0.47;100.00;101000.91;5038096;28;20459;-53
2023/01/21 04:00:20;;;;;;;1.60;1.60;;;;;;;0.34;100.00;100995.34;5038333;28;20447;-52
2023/01/21 04:02:46;;;;;;;3.33;1.70;;;;;;;0.38;100.00;101013.75;5033514;28;20491;-52
2023/01/21 04:05:13;;;;;;;3.07;1.90;;;;;;;0.22;100.00;101006.38;5033604;28;20460;-52
2023/01/21 04:07:39;;;;;;;3.60;3.37;;;;;;;0.40;100.00;101004.19;5033970;28;20456;-53
2023/01/21 04:10:06;;;;;;;2.30;2.10;;;;;;;0.21;100.00;101008.09;5033536;28;20466;-53
2023/01/21 04:12:33;;;;;;;1.63;1.53;;;;;;;0.14;100.00;101021.88;5033196;28;20482;-52
2023/01/21 04:14:59;;;;;;;1.67;1.60;;;;;;;0.05;100.00;101018.16;5033955;28;20451;-52
2023/01/21 04:17:27;;;;;;;3.17;3.00;;;;;;;-0.07;100.00;101031.78;5033870;28;20455;-53
2023/01/21 04:19:53;;;;;;;8.47;2.13;;;;;;;-0.16;100.00;101018.47;5034067;28;20456;-52
2023/01/21 04:22:20;;;;;;;12.50;4.83;;;;;;;-0.23;100.00;101022.66;5030870;28;20479;-52
2023/01/21 04:24:47;;;;;;;1.67;1.57;;;;;;;-0.31;100.00;101029.38;5034787;28;20833;-52
2023/01/21 04:27:13;;;;;;;2.13;1.73;;;;;;;-0.45;100.00;101039.44;5033329;28;20505;-52
2023/01/21 04:29:39;;;;;;;7.50;1.77;;;;;;;-0.51;100.00;101049.72;5033731;28;20978;-52
2023/01/21 04:32:06;;;;;;;19.07;3.30;;;;;;;-0.45;100.00;101051.63;5033575;28;20472;-53
2023/01/21 04:34:32;;;;;;;2.83;2.17;;;;;;;-0.72;100.00;101051.72;5033914;28;20471;-53
2023/01/21 04:36:59;;;;;;;1.10;0.77;;;;;;;-0.82;100.00;101063.63;5033680;28;20452;-53
2023/01/21 04:39:25;;;;;;;1.23;1.13;;;;;;;-0.66;100.00;101063.25;5034845;28;20451;-53
2023/01/21 04:41:51;;;;;;;2.20;2.10;;;;;;;-0.66;100.00;101051.91;5033780;28;20471;-52
2023/01/21 04:44:18;;;;;;;2.30;2.20;;;;;;;-0.89;100.00;101061.66;5035030;28;20570;-53
2023/01/21 04:46:44;;;;;;;1.10;1.10;;;;;;;-1.02;100.00;101063.00;5034028;28;20463;-52
2023/01/21 04:49:11;;;;;;;12.63;0.97;;;;;;;-0.98;100.00;101066.59;5033741;28;20484;-53
2023/01/21 04:51:37;;;;;;;1.70;1.60;;;;;;;-0.99;100.00;101073.53;5034056;28;20870;-53
2023/01/21 04:54:03;;;;;;;3.37;2.00;;;;;;;-1.04;100.00;101071.63;5034015;28;20450;-52
2023/01/21 04:56:30;;;;;;;0.73;0.70;;;;;;;-1.08;100.00;101075.88;5033326;28;20471;-54
2023/01/21 04:58:56;;;;;;;1.57;1.30;;;;;;;-0.97;100.00;101077.06;5043644;28;20955;-52
2023/01/21 05:01:23;;;;;;;0.40;0.40;;;;;;;-1.17;100.00;101080.81;5033079;28;20483;-53
2023/01/21 05:03:49;;;;;;;2.03;2.03;;;;;;;-1.19;100.00;101082.47;5032625;28;20574;-53
2023/01/21 05:06:15;;;;;;;1.60;1.43;;;;;;;-1.22;100.00;101085.88;5033306;28;20451;-53
2023/01/21 05:08:42;;;;;;;0.80;0.80;;;;;;;-1.27;100.00;101097.88;5032740;28;20460;-52
2023/01/21 05:11:10;;;;;;;1.37;1.33;;;;;;;-1.20;100.00;101098.97;5033300;28;20452;-53
2023/01/21 05:13:37;;;;;;;2.43;1.07;;;;;;;-1.42;100.00;101099.97;5034712;28;20517;-53
2023/01/21 05:16:07;;;;;;;2.03;1.33;;;;;;;-1.50;100.00;101098.88;5033519;28;20510;-52
2023/01/21 05:18:33;;;;;;;0.67;0.67;;;;;;;-1.49;100.00;101098.03;5033699;28;20452;-52
2023/01/21 05:20:59;;;;;;;0.73;0.73;;;;;;;-1.35;100.00;101112.41;5036967;28;20872;-53
2023/01/21 05:23:26;;;;;;;4.23;2.00;;;;;;;-1.45;100.00;101107.72;5039984;28;20491;-52
2023/01/21 05:25:52;;;;;;;0.80;0.63;;;;;;;-1.55;100.00;101111.72;5046161;28;20509;-52
2023/01/21 05:28:19;;;;;;;1.50;1.40;;;;;;;-1.38;100.00;101120.09;5039231;28;20521;-52
2023/01/21 05:30:45;;;;;;;0.40;0.40;;;;;;;-1.31;100.00;101121.19;5045674;28;20861;-53
2023/01/21 05:33:12;;;;;;;2.80;1.90;;;;;;;-1.42;100.00;101117.34;5038752;28;20923;-51
2023/01/21 05:35:38;;;;;;;3.10;1.90;;;;;;;-1.30;100.00;101136.00;5026265;28;20503;-52
2023/01/21 05:38:05;;;;;;;3.60;1.23;;;;;;;-1.34;100.00;101136.75;5039149;28;20447;-52
2023/01/21 05:40:31;;;;;;;0.60;0.57;;;;;;;-1.52;100.00;101137.00;5038973;28;20963;-53
2023/01/21 05:42:58;;;;;;;1.60;0.57;;;;;;;-1.29;100.00;101149.09;5039003;28;20877;-53
2023/01/21 05:45:24;;;;;;;2.13;1.90;;;;;;;-1.10;100.00;101147.06;5041732;28;20572;-53
2023/01/21 05:47:52;;;;;;;2.27;2.17;;;;;;;-1.08;100.00;101146.31;5030129;28;20478;-53
2023/01/21 05:50:18;;;;;;;0.30;0.23;;;;;;;-1.02;100.00;101156.03;5038850;28;20451;-54
2023/01/21 05:52:44;;;;;;;4.27;2.80;;;;;;;-0.98;100.00;101160.50;5036722;28;20480;-53
2023/01/21 05:55:11;;;;;;;2.50;1.20;;;;;;;-1.07;100.00;101161.13;5038769;28;20492;-53
2023/01/21 05:57:37;;;;;;;4.83;1.50;;;;;;;-1.25;100.00;101169.22;5039832;28;20459;-53
2023/01/21 06:00:04;;;;;;;2.07;0.77;;;;;;;-1.27;100.00;101167.38;5038730;28;20451;-53
2023/01/21 06:02:31;;;;;;;9.03;1.37;;;;;;;-1.28;100.00;101183.88;5038695;28;20911;-53
2023/01/21 06:04:57;;;;;;;6.80;3.87;;;;;;;-1.56;100.00;101176.84;5038514;28;20486;-53
2023/01/21 06:07:24;;;;;;;0.70;0.50;;;;;;;-1.64;100.00;101180.91;5038712;28;20449;-53
2023/01/21 06:09:50;;;;;;;3.17;2.63;;;;;;;-1.69;100.00;101183.34;5038463;28;20454;-53
2023/01/21 06:12:17;;;;;;;2.03;1.13;;;;;;;-2.06;100.00;101190.66;5038526;28;20552;-53
2023/01/21 06:14:43;;;;;;;3.77;2.63;;;;;;;-2.15;100.00;101186.91;5038892;28;20444;-53
2023/01/21 06:17:09;;;;;;;2.27;2.17;;;;;;;-2.21;100.00;101193.59;5039163;28;20463;-52
2023/01/21 06:19:36;;;;;;;0.60;0.60;;;;;;;-2.38;100.00;101199.06;5038712;28;20514;-53
2023/01/21 06:22:02;;;;;;;4.33;1.23;;;;;;;-2.64;100.00;101198.88;5038387;28;20475;-53
2023/01/21 06:24:28;;;;;;;2.30;2.20;;;;;;;-2.69;100.00;101193.50;5038705;28;20491;-53
2023/01/21 06:26:55;;;;;;;0.87;0.87;;;;;;;-2.74;100.00;101205.41;5038842;28;20879;-53
2023/01/21 06:29:21;;;;;;;3.70;0.70;;;;;;;-2.87;100.00;101211.00;5039227;28;20458;-53
2023/01/21 06:31:48;;;;;;;2.50;2.30;;;;;;;-3.10;100.00;101210.03;5019958;28;20471;-53
2023/01/21 06:34:14;;;;;;;1.43;1.43;;;;;;;-3.35;100.00;101218.53;5035588;28;20447;-54
2023/01/21 06:36:41;;;;;;;2.70;1.20;;;;;;;-3.21;100.00;101222.59;5036386;28;20459;-53
2023/01/21 06:39:09;;;;;;;0.20;0.20;;;;;;;-2.96;100.00;101221.91;5040519;28;20853;-53
2023/01/21 06:41:36;;;;;;;3.70;0.93;;;;;;;-3.18;100.00;101220.09;5044377;28;20549;-53
2023/01/21 06:44:03;;;;;;;0.63;0.63;;;;;;;-3.23;100.00;101234.63;5040803;28;20487;-53
2023/01/21 06:46:29;;;;;;;1.13;0.97;;;;;;;-3.12;100.00;101235.09;5035656;28;20450;-53
2023/01/21 06:48:56;;;;;;;0.67;0.67;;;;;;;-3.23;100.00;101233.75;5035913;28;20452;-53
2023/01/21 06:51:22;;;;;;;1.27;1.20;;;;;;;-3.64;100.00;101230.28;5035815;28;20452;-52
2023/01/21 06:53:49;;;;;;;0.40;0.37;;;;;;;-3.60;100.00;101234.78;5036025;28;20535;-53
2023/01/21 06:56:15;;;;;;;1.43;1.00;;;;;;;-3.61;100.00;101235.59;5035969;28;20455;-53
2023/01/21 06:58:41;;;;;;;0.97;0.97;;;;;;;-3.81;100.00;101239.03;5035809;28;20452;-52
2023/01/21 07:01:08;;;;;;;0.70;0.70;;;;;;;-3.70;100.00;101248.16;5035526;28;20447;-53
2023/01/21 07:03:34;;;;;;;1.37;1.27;;;;;;;-3.25;100.00;101249.28;5035925;28;20479;-53
2023/01/21 07:06:01;;;;;;;0.63;0.63;;;;;;;-3.83;100.00;101254.56;5040280;28;20451;-53
2023/01/21 07:08:27;;;;;;;2.10;2.00;;;;;;;-4.13;100.00;101251.44;5043223;28;20837;-53
2023/01/21 07:10:54;;;;;;;2.40;2.30;;;;;;;-4.17;100.00;101250.41;5035411;28;20462;-52
2023/01/21 07:13:20;;;;;;;3.03;2.93;;;;;;;-4.05;100.00;101254.41;5044230;28;20478;-52
2023/01/21 07:15:46;;;;;;;2.87;0.60;;;;;;;-4.00;100.00;101258.97;5036838;28;20455;-52
2023/01/21 07:18:13;;;;;;;0.20;0.20;;;;;;;-4.11;100.00;101270.59;5037915;28;20459;-52
2023/01/21 07:20:41;;;;;;;0.50;0.50;;;;;;;-3.10;100.00;101260.31;5038468;28;20447;-52
2023/01/21 07:23:07;;;;;;;2.90;1.73;;;;;;;-2.55;100.00;101262.59;5035064;28;20487;-52
2023/01/21 07:25:36;;;;;;;0.87;0.87;;;;;;;-2.08;100.00;101251.38;5037036;28;20490;-54
2023/01/21 07:28:02;;;;;;;0.77;0.77;;;;;;;-2.69;97.89;101267.22;5031823;28;20448;-53
2023/01/21 07:30:29;;;;;;;1.03;1.03;;;;;;;-1.98;97.83;101263.06;5038643;28;20458;-53
2023/01/21 07:32:55;;;;;;;2.43;1.80;;;;;;;-2.14;95.26;101269.41;5034675;28;20474;-53
2023/01/21 07:35:21;;;;;;;0.60;0.60;;;;;;;-2.73;95.01;101270.53;5036000;28;20506;-52
2023/01/21 07:37:48;;;;;;;1.40;0.93;;;;;;;-2.20;96.95;101276.06;5034868;28;20448;-52
2023/01/21 07:40:14;;;;;;;0.70;0.70;;;;;;;-2.04;95.93;101269.75;5035866;28;20546;-52
2023/01/21 07:42:41;;;;;;;0.30;0.30;;;;;;;-2.81;95.06;101287.53;5036523;28;20502;-52
2023/01/21 07:45:07;;;;;;;0.93;0.93;;;;;;;-2.73;95.76;101290.47;5038113;28;20483;-52
2023/01/21 07:47:34;;;;;;;2.30;0.97;;;;;;;-1.78;96.09;101279.44;5034261;28;20919;-53
2023/01/21 07:50:03;;;;;;;1.87;1.80;;;;;;;-1.73;96.29;101290.03;5034313;28;20451;-52
2023/01/21 07:52:31;;;;;;;1.03;1.03;;;;;;;-2.06;93.52;101294.84;5034524;28;20463;-52
2023/01/21 07:54:57;;;;;;;0.50;0.50;;;;;;;-2.37;94.64;101296.25;5016845;28;20447;-52
2023/01/21 07:57:23;;;;;;;1.60;1.50;;;;;;;-3.19;96.29;101304.13;5034364;28;20452;-52
2023/01/21 07:59:50;;;;;;;8.93;2.77;;;;;;;-3.55;98.29;101310.34;5042055;28;20550;-52
2023/01/21 08:02:16;;;;;;;1.80;1.70;;;;;;;-4.09;98.82;101309.59;5033631;28;20475;-53
2023/01/21 08:04:43;;;;;;;14.20;1.67;;;;;;;-4.02;100.00;101306.44;5043388;28;20483;-52
2023/01/21 08:07:09;;;;;;;1.43;1.43;;;;;;;-4.07;100.00;101315.75;5037355;28;20452;-53
2023/01/21 08:09:39;;;;;;;0.30;0.30;;;;;;;-3.96;100.00;101315.44;5033929;28;20839;-52
2023/01/21 08:12:07;;;;;;;2.77;2.00;;;;;;;-4.13;100.00;101320.63;5039883;28;20566;-52
2023/01/21 08:14:33;;;;;;;1.13;0.80;;;;;;;-4.19;100.00;101322.13;5027387;28;20459;-52
2023/01/21 08:17:00;;;;;;;0.47;0.47;;;;;;;-4.35;100.00;101327.41;5035367;28;20888;-53
2023/01/21 08:19:26;;;;;;;0.73;0.73;;;;;;;-4.22;100.00;101322.00;5042171;28;20853;-52
2023/01/21 08:21:53;;;;;;;5.17;2.60;;;;;;;-3.99;100.00;101329.94;5037336;28;20502;-53
2023/01/21 08:24:19;;;;;;;0.43;0.40;;;;;;;-4.14;100.00;101324.03;5036427;28;20479;-53
2023/01/21 08:26:46;;;;;;;1.37;1.33;;;;;;;-4.12;100.00;101332.78;5035138;28;20459;-53
2023/01/21 08:29:13;;;;;;;0.47;0.43;;;;;;;-4.12;100.00;101330.19;5042829;28;20457;-52
2023/01/21 08:31:40;;;;;;;0.80;0.80;;;;;;;-4.02;100.00;101335.91;5040051;28;20475;-53
2023/01/21 08:34:06;;;;;;;0.20;0.20;;;;;;;-3.98;100.00;101332.63;5037477;28;20487;-52
2023/01/21 08:36:32;;;;;;;1.57;1.43;;;;;;;-3.86;100.00;101340.09;5039089;28;20451;-54
2023/01/21 08:39:00;;;;;;;1.63;1.57;;;;;;;-3.83;100.00;101341.97;5034101;28;20448;-54
2023/01/21 08:41:27;;;;;;;2.37;1.60;;;;;;;-3.76;100.00;101344.91;5023708;28;20452;-53
2023/01/21 08:43:53;;;;;;;2.10;0.60;;;;;;;-3.54;100.00;101340.69;5033710;28;20455;-53
2023/01/21 08:46:20;;;;;;;0.63;0.63;;;;;;;-3.41;100.00;101345.63;5034577;28;20487;-53
2023/01/21 08:48:46;;;;;;;2.57;0.80;;;;;;;-3.34;100.00;101338.13;5043825;28;20452;-53
2023/01/21 08:51:12;;;;;;;0.33;0.30;;;;;;;-3.23;100.00;101346.41;5039153;28;20455;-52
2023/01/21 08:53:39;;;;;;;0.60;0.50;;;;;;;-3.16;100.00;101342.34;5036989;28;21003;-53
2023/01/21 08:56:05;;;;;;;0.37;0.37;;;;;;;-3.05;100.00;101343.72;5033124;28;20452;-53
2023/01/21 08:58:32;;;;;;;2.90;2.60;;;;;;;-3.02;100.00;101349.03;5015917;28;20864;-53
2023/01/21 09:01:05;;;;;;;1.43;1.43;;;;;;;-2.96;100.00;101343.22;5033231;28;20949;-54
2023/01/21 09:03:31;;;;;;;1.77;0.80;;;;;;;-2.78;100.00;101346.59;5032984;28;20485;-53
2023/01/21 09:06:02;;;;;;;0.37;0.37;;;;;;;-2.58;100.00;101345.75;5033228;28;20858;-53
2023/01/21 09:08:28;;;;;;;0.57;0.57;;;;;;;-2.45;100.00;101345.41;5033071;28;20451;-53
2023/01/21 09:11:02;;;;;;;2.00;1.43;;;;;;;-2.36;100.00;101344.88;5033290;28;20447;-53
2023/01/21 09:13:31;;;;;;;1.20;1.07;;;;;;;-2.17;100.00;101344.81;5033144;28;20464;-54
2023/01/21 09:15:59;;;;;;;4.53;2.10;;;;;;;-1.81;100.00;101357.47;5032725;28;20451;-53
2023/01/21 09:18:26;;;;;;;2.87;1.27;;;;;;;-1.74;100.00;101353.41;5032475;28;20448;-53
2023/01/21 09:20:52;;;;;;;1.50;1.50;;;;;;;-1.58;100.00;101345.31;5032403;28;20466;-54
2023/01/21 09:23:25;;;;;;;1.23;1.23;;;;;;;-1.38;100.00;101354.75;5032240;28;20475;-53
2023/01/21 09:25:53;;;;;;;6.90;2.63;;;;;;;-1.25;100.00;101353.47;5032275;28;20491;-54
2023/01/21 09:28:20;;;;;;;2.30;2.20;;;;;;;-1.30;100.00;101352.44;5032204;28;20949;-53
2023/01/21 09:30:47;;;;;;;1.40;1.40;;;;;;;-1.15;100.00;101354.72;5032286;28;20448;-54
2023/01/21 09:33:14;;;;;;;2.13;2.03;;;;;;;-1.07;100.00;101362.00;5032312;28;20475;-54
2023/01/21 09:35:41;;;;;;;0.87;0.87;;;;;;;-1.02;100.00;101354.31;5032478;28;20480;-53
2023/01/21 09:38:08;;;;;;;4.00;3.37;;;;;;;-0.89;100.00;101366.97;5032160;28;20534;-53
2023/01/21 09:40:34;;;;;;;6.30;2.13;;;;;;;-0.40;100.00;101371.25;5032232;28;20455;-53
2023/01/21 09:43:12;;;;;;;5.70;3.00;;;;;;;-0.14;100.00;101356.38;5032174;28;20467;-54
2023/01/21 09:45:42;;;;;;;3.30;3.17;;;;;;;0.14;100.00;101364.28;5033105;28;20491;-53
2023/01/21 09:48:18;;;;;;;1.57;1.57;;;;;;;0.42;99.96;101367.75;5033558;28;20452;-53
2023/01/21 09:50:49;;;;;;;0.80;0.80;;;;;;;0.48;100.00;101371.41;5015317;28;20502;-54
2023/01/21 09:53:46;;;;;;;3.90;2.50;;;;;;;1.27;99.99;101375.38;5015784;28;20467;-53
2023/01/21 09:56:40;;;;;;;0.83;0.83;;;;;;;1.28;98.73;101377.16;5014892;28;20462;-53
2023/01/21 09:59:21;;;;;;;3.40;2.87;;;;;;;1.53;97.62;101383.03;5032106;28;20703;-54
2023/01/21 10:01:50;;;;;;;1.87;1.77;;;;;;;1.41;96.44;101376.63;5014325;28;21026;-54
2023/01/21 10:04:35;;;;;;;6.20;2.90;;;;;;;1.44;94.46;101387.19;5031975;28;20456;-53
2023/01/21 10:07:10;;;;;;;4.10;3.73;;;;;;;1.53;95.38;101389.16;5033717;28;20542;-53
2023/01/21 10:09:59;;;;;;;8.10;2.63;;;;;;;1.82;95.17;101382.03;5035634;28;20489;-53
2023/01/21 10:13:00;;;;;;;1.63;1.63;;;;;;;1.42;97.42;101381.03;5024075;28;20467;-53
2023/01/21 10:15:46;;;;;;;2.57;2.17;;;;;;;1.58;96.28;101389.28;5038226;28;20436;-53
2023/01/21 10:18:18;;;;;;;20.53;3.47;;;;;;;1.26;97.57;101380.59;5035421;28;20451;-54
2023/01/21 10:20:55;;;;;;;2.93;2.57;;;;;;;1.25;99.44;101384.03;5039222;28;20451;-54
2023/01/21 10:23:29;;;;;;;1.93;1.80;;;;;;;1.10;98.59;101390.66;5033377;28;20988;-53
2023/01/21 10:25:59;;;;;;;2.47;2.37;;;;;;;1.20;99.19;101381.28;5035615;28;20538;-53
2023/01/21 10:28:29;;;;;;;3.40;3.20;;;;;;;1.22;98.75;101382.22;5035514;28;20448;-53
2023/01/21 10:31:05;;;;;;;2.10;2.00;;;;;;;1.42;98.52;101377.50;5036506;28;20833;-53
2023/01/21 10:33:32;;;;;;;10.00;4.40;;;;;;;1.42;97.28;101380.13;5024168;28;20471;-54
2023/01/21 10:36:02;;;;;;;3.37;2.23;;;;;;;1.34;98.28;101379.91;5035980;28;20448;-53
2023/01/21 10:38:36;;;;;;;1.50;1.20;;;;;;;1.30;98.91;101380.69;5036401;28;20502;-53
2023/01/21 10:41:19;;;;;;;5.90;2.57;;;;;;;1.26;98.37;101383.19;5036252;28;21011;-53
2023/01/21 10:44:04;;;;;;;1.83;1.67;;;;;;;1.24;99.75;101383.16;5035767;28;20936;-53
2023/01/21 10:46:42;;;;;;;3.70;2.03;;;;;;;1.32;99.28;101384.22;5023189;28;20491;-53
2023/01/21 10:49:27;;;;;;;3.33;1.37;;;;;;;1.42;98.55;101385.38;5035129;28;20471;-53
2023/01/21 10:52:03;;;;;;;1.80;1.70;;;;;;;1.37;98.45;101380.03;5035159;28;20471;-53
2023/01/21 10:54:36;;;;;;;5.30;1.70;;;;;;;1.89;98.82;101381.31;5035568;28;20455;-54
2023/01/21 10:57:19;;;;;;;1.53;1.43;;;;;;;1.81;96.46;101374.13;5034842;28;20459;-53
2023/01/21 10:59:47;;;;;;;2.83;1.80;;;;;;;1.79;95.97;101376.72;5035139;28;20453;-54
2023/01/21 11:02:22;;;;;;;2.40;1.60;;;;;;;1.72;96.21;101373.03;5034615;28;20478;-53
2023/01/21 11:04:50;;;;;;;1.63;1.30;;;;;;;1.64;96.70;101364.09;5034849;28;20949;-54
2023/01/21 11:07:19;;;;;;;6.07;3.80;;;;;;;1.87;96.43;101371.66;5034619;28;20505;-53
2023/01/21 11:09:46;;;;;;;2.77;2.57;;;;;;;1.83;97.31;101378.56;5034710;28;20451;-53
2023/01/21 11:12:18;;;;;;;3.17;3.00;;;;;;;2.06;96.94;101377.38;5034406;28;20988;-54
2023/01/21 11:14:52;;;;;;;14.50;2.00;;;;;;;2.27;96.12;101376.97;5034755;28;20443;-54
2023/01/21 11:17:33;;;;;;;9.83;1.50;;;;;;;2.25;95.76;101377.78;5034566;28;20448;-53
2023/01/21 11:20:04;;;;;;;3.23;1.73;;;;;;;2.18;93.89;101383.72;5033968;28;20448;-53
2023/01/21 11:22:31;;;;;;;2.50;2.20;;;;;;;2.02;94.92;101374.63;5034251;28;20480;-54
2023/01/21 11:24:59;;;;;;;0.80;0.70;;;;;;;2.82;92.80;101374.63;5034542;28;20949;-53
2023/01/21 11:27:38;;;;;;;16.33;1.60;;;;;;;2.58;92.83;101373.28;5034594;28;20481;-53
2023/01/21 11:30:26;;;;;;;2.40;1.33;;;;;;;2.37;92.80;101373.72;5021324;28;20502;-53
2023/01/21 11:33:25;;;;;;;1.33;1.20;;;;;;;2.29;93.68;101372.63;5033318;28;20984;-54
2023/01/21 11:35:53;;;;;;;2.47;2.37;;;;;;;2.21;92.63;101378.59;5034255;28;20448;-54
2023/01/21 11:38:28;;;;;;;1.00;0.60;;;;;;;2.21;93.63;101382.09;5034281;28;20458;-54
2023/01/21 11:41:10;;;;;;;2.60;1.57;;;;;;;2.43;92.89;101380.81;5016402;28;20878;-53